KBFI/BFI METAR and TAF weather

Enter ICAO airport designator
Station Type Date Time Source
KBFI METAR 2019/09/20 09:53 UTC NOAA

KBFI 200953Z 15003KT 10SM OVC011 16/13 A3006 RMK AO2 SLP178 T01610133


Station Type Date Time Source
KBFI Decoded METAR 2019/09/20 09:53 UTC NOAA

SEATTLE BOEING FIELD, WA, United States (KBFI) 47-33N 122-19W 4M
Sep 20, 2019 - 05:53 AM EDT / 2019.09.20 0953 UTC
Wind: from the SSE (150 degrees) at 3 MPH (3 KT):0
Visibility: 10 mile(s):0
Sky conditions: overcast
Temperature: 61.0 F (16.1 C)
Dew Point: 55.9 F (13.3 C)
Relative Humidity: 83%
Pressure (altimeter): 30.06 in. Hg (1017 hPa)
ob: KBFI 200953Z 15003KT 10SM OVC011 16/13 A3006 RMK AO2 SLP178 T01610133
cycle: 10

Station Type Date Time Source
KBFI TAF 2019/09/20 06:42 UTC NOAA

TAF KBFI 200541Z 2006/2106 VRB04KT P6SM VCSH SCT020 BKN060 OVC100
TEMPO 2006/2010 BKN017
FM201000 16004KT P6SM OVC027
FM201400 15003KT P6SM OVC020
FM202100 27004KT P6SM BKN030
FM210200 VRB03KT P6SM BKN050 BKN120

Example: see airport list